createdAt,value
2022-12-18T00:01:53.612Z,6.53
2022-12-18T00:04:24.770Z,9.02
2022-12-18T00:06:53.028Z,6.95
2022-12-18T00:09:20.919Z,11.52
2022-12-18T00:11:49.460Z,6.82
2022-12-18T00:14:17.361Z,9.27
2022-12-18T00:16:48.215Z,15.15
2022-12-18T00:19:16.778Z,20.38
2022-12-18T00:21:45.648Z,7.00
2022-12-18T00:24:13.968Z,6.55
2022-12-18T00:26:41.870Z,12.10
2022-12-18T00:29:14.563Z,17.55
2022-12-18T00:31:43.860Z,9.10
2022-12-18T00:34:14.639Z,7.53
2022-12-18T00:36:43.616Z,8.40
2022-12-18T00:39:13.029Z,10.52
2022-12-18T00:41:58.596Z,9.80
2022-12-18T00:44:26.498Z,5.32
2022-12-18T00:46:54.382Z,10.18
2022-12-18T00:49:23.770Z,5.85
2022-12-18T00:51:51.794Z,9.38
2022-12-18T00:54:20.043Z,10.93
2022-12-18T00:56:49.857Z,13.68
2022-12-18T00:59:18.351Z,13.55
2022-12-18T01:01:46.828Z,8.70
2022-12-18T01:04:15.263Z,8.75
2022-12-18T01:06:44.807Z,11.40
2022-12-18T01:09:12.777Z,21.42
2022-12-18T01:11:40.642Z,9.52
2022-12-18T01:14:08.600Z,9.05
2022-12-18T01:16:36.632Z,10.45
2022-12-18T01:19:04.559Z,9.57
2022-12-18T01:21:32.441Z,11.93
2022-12-18T01:24:01.667Z,10.32
2022-12-18T01:26:30.550Z,10.23
2022-12-18T01:28:59.402Z,15.10
2022-12-18T01:31:28.761Z,12.32
2022-12-18T01:33:57.680Z,15.35
2022-12-18T01:36:27.441Z,12.50
2022-12-18T01:38:55.904Z,11.88
2022-12-18T01:41:27.525Z,11.85
2022-12-18T01:43:58.193Z,11.30
2022-12-18T01:46:27.590Z,15.52
2022-12-18T01:48:58.675Z,12.30
2022-12-18T01:51:28.771Z,10.77
2022-12-18T01:53:56.731Z,11.07
2022-12-18T01:56:26.042Z,12.73
2022-12-18T01:58:58.765Z,9.90
2022-12-18T02:01:27.296Z,13.00
2022-12-18T02:03:55.320Z,12.27
2022-12-18T02:06:29.431Z,14.82
2022-12-18T02:09:08.737Z,11.30
2022-12-18T02:11:50.925Z,11.27
2022-12-18T02:14:30.213Z,16.50
2022-12-18T02:17:05.549Z,13.68
2022-12-18T02:19:46.726Z,16.10
2022-12-18T02:22:31.960Z,8.10
2022-12-18T02:25:15.528Z,7.07
2022-12-18T02:27:47.464Z,11.68
2022-12-18T02:30:16.033Z,9.70
2022-12-18T02:32:48.285Z,12.32
2022-12-18T02:35:19.297Z,12.45
2022-12-18T02:37:48.824Z,12.40
2022-12-18T02:40:19.155Z,18.27
2022-12-18T02:42:48.404Z,11.48
2022-12-18T02:45:16.816Z,17.50
2022-12-18T02:47:48.327Z,13.10
2022-12-18T02:50:24.191Z,11.70
2022-12-18T02:53:02.944Z,11.63
2022-12-18T02:55:41.595Z,12.95
2022-12-18T02:58:16.493Z,10.02
2022-12-18T03:00:50.624Z,14.55
2022-12-18T03:03:25.142Z,17.23
2022-12-18T03:05:57.459Z,10.68
2022-12-18T03:08:28.322Z,11.32
2022-12-18T03:11:00.633Z,16.58
2022-12-18T03:13:32.957Z,9.02
2022-12-18T03:16:02.681Z,12.35
2022-12-18T03:18:37.498Z,13.77
2022-12-18T03:21:08.394Z,18.02
2022-12-18T03:23:41.970Z,16.05
2022-12-18T03:26:14.928Z,11.88
2022-12-18T03:28:47.896Z,10.63
2022-12-18T03:31:17.260Z,11.38
2022-12-18T03:33:49.263Z,13.00
2022-12-18T03:36:17.512Z,13.15
2022-12-18T03:38:45.377Z,16.10
2022-12-18T03:41:19.933Z,13.40
2022-12-18T03:43:53.085Z,14.82
2022-12-18T03:46:29.252Z,15.43
2022-12-18T03:49:03.089Z,10.20
2022-12-18T03:51:39.957Z,22.00
2022-12-18T03:54:10.653Z,14.40
2022-12-18T03:56:43.030Z,16.15
2022-12-18T03:59:17.045Z,13.90
2022-12-18T04:01:48.969Z,10.52
2022-12-18T04:04:18.156Z,19.50
2022-12-18T04:06:47.893Z,16.02
2022-12-18T04:09:16.423Z,9.43
2022-12-18T04:11:45.381Z,14.55
2022-12-18T04:14:17.897Z,13.98
2022-12-18T04:16:46.609Z,15.23
2022-12-18T04:19:14.634Z,13.98
2022-12-18T04:21:42.664Z,17.75
2022-12-18T04:24:10.636Z,14.13
2022-12-18T04:26:39.290Z,13.52
2022-12-18T04:29:07.245Z,16.80
2022-12-18T04:31:36.565Z,12.73
2022-12-18T04:34:04.942Z,15.20
2022-12-18T04:36:32.853Z,15.07
2022-12-18T04:39:00.761Z,22.00
2022-12-18T04:41:28.606Z,16.83
2022-12-18T04:43:56.467Z,12.02
2022-12-18T04:46:24.498Z,10.95
2022-12-18T04:48:53.694Z,9.63
2022-12-18T04:51:26.467Z,18.17
2022-12-18T04:53:54.841Z,11.80
2022-12-18T04:56:22.878Z,12.43
2022-12-18T04:58:51.210Z,17.90
2022-12-18T05:01:20.224Z,19.52
2022-12-18T05:03:48.326Z,24.27
2022-12-18T05:06:17.583Z,15.90
2022-12-18T05:08:45.568Z,9.75
2022-12-18T05:11:16.584Z,15.55
2022-12-18T05:13:45.867Z,16.60
2022-12-18T05:16:15.271Z,17.02
2022-12-18T05:18:43.705Z,15.65
2022-12-18T05:21:11.662Z,16.02
2022-12-18T05:23:41.262Z,13.85
2022-12-18T05:26:09.859Z,9.45
2022-12-18T05:28:38.319Z,17.98
2022-12-18T05:31:07.214Z,15.07
2022-12-18T05:33:36.726Z,15.75
2022-12-18T05:36:07.604Z,12.88
2022-12-18T05:38:36.917Z,12.68
2022-12-18T05:41:07.406Z,15.93
2022-12-18T05:43:37.017Z,13.57
2022-12-18T05:46:09.021Z,11.07
2022-12-18T05:48:37.226Z,14.02
2022-12-18T05:51:07.963Z,11.63
2022-12-18T05:53:37.651Z,17.42
2022-12-18T05:56:09.812Z,19.77
2022-12-18T05:58:38.265Z,10.75
2022-12-18T06:01:11.447Z,16.25
2022-12-18T06:03:39.899Z,14.73
2022-12-18T06:06:15.590Z,20.10
2022-12-18T06:08:46.424Z,16.70
2022-12-18T06:11:19.622Z,15.63
2022-12-18T06:13:47.744Z,12.88
2022-12-18T06:16:15.768Z,10.20
2022-12-18T06:19:16.575Z,17.35
2022-12-18T06:21:44.874Z,11.82
2022-12-18T06:24:12.707Z,10.18
2022-12-18T06:26:42.516Z,13.68
2022-12-18T06:29:10.378Z,15.82
2022-12-18T06:31:38.343Z,14.98
2022-12-18T06:34:07.055Z,16.58
2022-12-18T06:36:35.012Z,13.65
2022-12-18T06:39:02.909Z,11.75
2022-12-18T06:41:30.760Z,11.85
2022-12-18T06:44:00.325Z,17.10
2022-12-18T06:46:29.835Z,10.50
2022-12-18T06:48:57.697Z,16.17
2022-12-18T06:51:26.211Z,16.38
2022-12-18T06:53:54.130Z,15.93
2022-12-18T06:56:21.996Z,13.27
2022-12-18T06:58:49.878Z,15.98
2022-12-18T07:01:20.475Z,17.23
2022-12-18T07:03:48.628Z,16.90
2022-12-18T07:06:18.590Z,16.70
2022-12-18T07:08:46.757Z,19.08
2022-12-18T07:11:14.745Z,15.23
2022-12-18T07:13:43.057Z,12.60
2022-12-18T07:16:18.382Z,14.18
2022-12-18T07:18:50.303Z,14.13
2022-12-18T07:21:20.523Z,14.82
2022-12-18T07:23:49.029Z,10.98
2022-12-18T07:26:20.641Z,13.60
2022-12-18T07:28:49.311Z,14.68
2022-12-18T07:31:18.982Z,15.98
2022-12-18T07:33:47.755Z,10.25
2022-12-18T07:36:17.168Z,16.45
2022-12-18T07:38:45.026Z,15.80
2022-12-18T07:41:14.829Z,11.65
2022-12-18T07:43:43.604Z,7.88
2022-12-18T07:46:14.651Z,20.40
2022-12-18T07:48:43.399Z,14.25
2022-12-18T07:51:14.211Z,20.08
2022-12-18T07:53:44.464Z,15.75
2022-12-18T07:56:31.281Z,18.90
2022-12-18T07:59:00.635Z,18.05
2022-12-18T08:01:29.123Z,17.88
2022-12-18T08:03:57.237Z,19.70
2022-12-18T08:06:25.450Z,14.68
2022-12-18T08:08:56.084Z,18.58
2022-12-18T08:11:25.448Z,16.08
2022-12-18T08:13:53.504Z,20.75
2022-12-18T08:16:22.750Z,18.95
2022-12-18T08:18:51.001Z,24.60
2022-12-18T08:21:23.761Z,20.70
2022-12-18T08:23:52.919Z,22.85
2022-12-18T08:26:22.993Z,23.02
2022-12-18T08:28:51.273Z,22.17
2022-12-18T08:31:19.863Z,24.23
2022-12-18T08:33:51.460Z,23.27
2022-12-18T08:36:19.447Z,31.20
2022-12-18T08:38:47.576Z,25.55
2022-12-18T08:41:17.137Z,24.80
2022-12-18T08:44:04.262Z,27.08
2022-12-18T08:46:36.525Z,19.42
2022-12-18T08:49:04.948Z,23.80
2022-12-18T08:51:32.946Z,26.23
2022-12-18T08:54:00.933Z,24.10
2022-12-18T08:56:29.205Z,23.40
2022-12-18T08:58:58.912Z,29.63
2022-12-18T09:01:27.014Z,30.08
2022-12-18T09:03:55.052Z,26.25
2022-12-18T09:06:24.804Z,25.65
2022-12-18T09:08:52.771Z,27.60
2022-12-18T09:11:22.989Z,21.92
2022-12-18T09:13:51.296Z,25.50
2022-12-18T09:16:20.776Z,26.35
2022-12-18T09:18:49.148Z,24.83
2022-12-18T09:21:19.292Z,28.13
2022-12-18T09:23:51.634Z,25.08
2022-12-18T09:26:19.524Z,25.00
2022-12-18T09:28:47.674Z,24.25
2022-12-18T09:31:17.244Z,28.63
2022-12-18T09:33:46.575Z,29.73
2022-12-18T09:36:16.660Z,24.90
2022-12-18T09:38:44.649Z,28.20
2022-12-18T09:41:27.592Z,25.80
2022-12-18T09:43:59.114Z,31.15
2022-12-18T09:46:30.891Z,25.58
2022-12-18T09:49:04.961Z,27.52
2022-12-18T09:51:43.243Z,32.63
2022-12-18T09:54:17.847Z,27.10
2022-12-18T09:56:46.009Z,26.90
2022-12-18T09:59:24.612Z,30.52
2022-12-18T10:01:52.862Z,31.38
2022-12-18T10:04:22.385Z,30.52
2022-12-18T10:06:56.996Z,29.73
2022-12-18T10:09:33.177Z,32.88
2022-12-18T10:12:09.565Z,29.23
2022-12-18T10:14:45.088Z,27.73
2022-12-18T10:17:21.135Z,26.42
2022-12-18T10:19:56.797Z,30.70
2022-12-18T10:22:35.760Z,31.60
2022-12-18T10:25:08.759Z,27.60
2022-12-18T10:27:37.015Z,26.98
2022-12-18T10:30:15.576Z,35.67
2022-12-18T10:32:43.915Z,21.60
2022-12-18T10:35:19.923Z,32.78
2022-12-18T10:38:09.078Z,26.90
2022-12-18T10:40:52.143Z,27.17
2022-12-18T10:43:24.379Z,26.23
2022-12-18T10:46:06.698Z,27.08
2022-12-18T10:48:36.440Z,35.03
2022-12-18T10:51:13.612Z,37.63
2022-12-18T10:53:54.267Z,33.00
2022-12-18T10:56:22.904Z,33.40
2022-12-18T10:58:59.252Z,33.78
2022-12-18T11:01:27.492Z,34.80
2022-12-18T11:04:10.968Z,33.08
2022-12-18T11:06:55.839Z,29.25
2022-12-18T11:09:25.498Z,31.50
2022-12-18T11:11:54.957Z,36.28
2022-12-18T11:14:25.928Z,30.25
2022-12-18T11:17:24.251Z,34.28
2022-12-18T11:19:43.576Z,32.90
2022-12-18T11:22:23.741Z,41.85
2022-12-18T11:27:53.541Z,28.63
2022-12-18T11:30:26.607Z,30.17
2022-12-18T11:32:59.233Z,28.60
2022-12-18T11:35:37.389Z,30.83
2022-12-18T11:38:14.388Z,35.47
2022-12-18T11:40:47.598Z,30.67
2022-12-18T11:43:20.828Z,33.13
2022-12-18T11:45:55.120Z,34.13
2022-12-18T11:48:27.336Z,32.08
2022-12-18T11:50:57.286Z,31.60
2022-12-18T11:53:28.432Z,28.90
2022-12-18T11:56:06.990Z,36.97
2022-12-18T11:58:46.792Z,31.38
2022-12-18T12:01:24.069Z,33.22
2022-12-18T12:04:06.140Z,34.35
2022-12-18T12:06:41.668Z,29.73
2022-12-18T12:09:20.940Z,26.75
2022-12-18T12:12:00.857Z,33.67
2022-12-18T12:14:43.813Z,37.13
2022-12-18T12:17:17.207Z,37.97
2022-12-18T12:19:53.065Z,37.72
2022-12-18T12:22:29.756Z,29.33
2022-12-18T12:25:17.573Z,41.92
2022-12-18T12:27:54.035Z,38.00
2022-12-18T12:30:24.200Z,32.13
2022-12-18T12:33:06.061Z,37.20
2022-12-18T12:35:44.706Z,27.67
2022-12-18T12:38:16.801Z,40.40
2022-12-18T12:40:58.545Z,28.85
2022-12-18T12:43:35.642Z,38.92
2022-12-18T12:46:07.727Z,36.65
2022-12-18T12:48:44.249Z,39.63
2022-12-18T12:51:18.151Z,37.75
2022-12-18T12:53:47.103Z,34.40
2022-12-18T12:56:19.120Z,29.15
2022-12-18T12:59:01.733Z,34.83
2022-12-18T13:01:39.431Z,31.33
2022-12-18T13:04:21.493Z,31.63
2022-12-18T13:06:55.708Z,32.53
2022-12-18T13:09:24.699Z,33.07
2022-12-18T13:12:11.356Z,28.20
2022-12-18T13:14:41.803Z,33.88
2022-12-18T13:17:31.953Z,34.93
2022-12-18T13:20:15.434Z,35.53
2022-12-18T13:22:47.849Z,31.13
2022-12-18T13:25:34.350Z,35.00
2022-12-18T13:28:13.525Z,32.40
2022-12-18T13:30:55.595Z,31.27
2022-12-18T13:36:40.213Z,33.65
2022-12-18T13:39:36.749Z,31.85
2022-12-18T13:43:00.163Z,30.50
2022-12-18T13:45:42.342Z,30.33
2022-12-18T13:48:22.667Z,28.63
2022-12-18T13:50:55.120Z,33.85
2022-12-18T13:53:26.731Z,29.10
2022-12-18T13:55:56.039Z,32.97
2022-12-18T13:58:24.533Z,29.95
2022-12-18T14:00:53.866Z,30.83
2022-12-18T14:03:26.997Z,45.28
2022-12-18T14:05:58.524Z,42.10
2022-12-18T14:08:34.218Z,29.63
2022-12-18T14:11:05.241Z,32.88
2022-12-18T14:13:35.974Z,41.07
2022-12-18T14:16:07.444Z,36.03
2022-12-18T14:18:44.371Z,34.70
2022-12-18T14:21:21.847Z,39.05
2022-12-18T14:23:49.793Z,30.20
2022-12-18T14:26:28.114Z,31.38
2022-12-18T14:28:56.538Z,31.30
2022-12-18T14:31:27.776Z,34.40
2022-12-18T14:33:56.195Z,30.00
2022-12-18T14:36:26.234Z,28.43
2022-12-18T14:38:55.993Z,33.40
2022-12-18T14:41:25.026Z,28.97
2022-12-18T14:43:55.073Z,42.53
2022-12-18T14:46:37.576Z,29.50
2022-12-18T14:49:18.470Z,37.20
2022-12-18T14:51:50.426Z,37.83
2022-12-18T14:54:20.501Z,30.23
2022-12-18T14:56:50.699Z,31.77
2022-12-18T14:59:24.812Z,30.33
2022-12-18T15:02:01.082Z,32.57
2022-12-18T15:04:32.782Z,32.08
2022-12-18T15:07:17.026Z,35.95
2022-12-18T15:09:46.303Z,31.60
2022-12-18T15:12:28.140Z,25.25
2022-12-18T15:14:56.057Z,31.38
2022-12-18T15:17:26.859Z,30.50
2022-12-18T15:20:00.660Z,30.33
2022-12-18T15:22:31.171Z,28.42
2022-12-18T15:25:00.206Z,32.33
2022-12-18T15:27:31.631Z,29.50
2022-12-18T15:30:22.678Z,28.90
2022-12-18T15:32:53.174Z,28.73
2022-12-18T15:35:23.414Z,26.05
2022-12-18T15:37:51.528Z,29.95
2022-12-18T15:40:21.275Z,19.98
2022-12-18T15:43:07.973Z,27.40
2022-12-18T15:45:35.903Z,19.93
2022-12-18T15:48:16.568Z,20.75
2022-12-18T15:50:44.580Z,22.58
2022-12-18T15:53:12.543Z,32.40
2022-12-18T15:56:01.190Z,30.75
2022-12-18T15:58:29.473Z,29.63
2022-12-18T16:00:59.348Z,29.58
2022-12-18T16:03:28.649Z,27.35
2022-12-18T16:05:56.580Z,34.33
2022-12-18T16:08:25.706Z,30.20
2022-12-18T16:10:53.599Z,28.77
2022-12-18T16:13:22.258Z,27.10
2022-12-18T16:15:50.433Z,27.15
2022-12-18T16:18:18.332Z,31.33
2022-12-18T16:20:47.542Z,27.73
2022-12-18T16:23:15.414Z,26.25
2022-12-18T16:25:43.301Z,25.23
2022-12-18T16:28:11.160Z,23.80
2022-12-18T16:30:39.355Z,27.45
2022-12-18T16:33:07.834Z,22.17
2022-12-18T16:35:38.008Z,25.98
2022-12-18T16:38:07.280Z,19.98
2022-12-18T16:40:55.395Z,29.30
2022-12-18T16:43:23.295Z,22.60
2022-12-18T16:45:51.134Z,25.58
2022-12-18T16:48:19.806Z,31.40
2022-12-18T16:50:47.662Z,28.20
2022-12-18T16:53:16.860Z,25.05
2022-12-18T16:55:44.744Z,26.92
2022-12-18T16:58:12.642Z,32.20
2022-12-18T17:00:41.208Z,30.40
2022-12-18T17:03:09.230Z,31.00
2022-12-18T17:05:37.178Z,26.15
2022-12-18T17:08:05.467Z,25.75
2022-12-18T17:10:36.843Z,31.08
2022-12-18T17:13:04.742Z,25.42
2022-12-18T17:15:36.181Z,31.05
2022-12-18T17:18:04.537Z,27.52
2022-12-18T17:20:32.555Z,30.55
2022-12-18T17:23:00.401Z,26.77
2022-12-18T17:25:29.799Z,28.02
2022-12-18T17:27:59.118Z,27.48
2022-12-18T17:30:26.993Z,26.70
2022-12-18T17:32:54.921Z,28.40
2022-12-18T17:35:22.763Z,24.05
2022-12-18T17:37:50.620Z,28.75
2022-12-18T17:40:18.633Z,26.63
2022-12-18T17:42:46.463Z,30.10
2022-12-18T17:45:15.755Z,33.03
2022-12-18T17:47:43.596Z,28.65
2022-12-18T17:50:11.485Z,24.73
2022-12-18T17:52:39.333Z,23.70
2022-12-18T17:55:08.264Z,23.70
2022-12-18T17:57:36.533Z,30.02
2022-12-18T18:00:05.761Z,29.80
2022-12-18T18:02:35.178Z,27.42
2022-12-18T18:05:03.765Z,22.55
2022-12-18T18:07:31.640Z,26.92
2022-12-18T18:09:59.532Z,24.35
2022-12-18T18:12:53.314Z,23.05
2022-12-18T18:15:21.449Z,20.38
2022-12-18T18:17:50.744Z,23.83
2022-12-18T18:20:22.464Z,23.65
2022-12-18T18:22:50.702Z,20.38
2022-12-18T18:25:18.795Z,25.83
2022-12-18T18:27:47.444Z,28.30
2022-12-18T18:30:15.798Z,29.05
2022-12-18T18:32:43.665Z,22.92
2022-12-18T18:35:30.916Z,27.33
2022-12-18T18:38:00.842Z,25.35
2022-12-18T18:40:28.746Z,31.58
2022-12-18T18:42:57.670Z,28.92
2022-12-18T18:45:25.573Z,29.13
2022-12-18T18:47:53.518Z,25.63
2022-12-18T18:50:22.764Z,31.08
2022-12-18T18:52:50.589Z,29.95
2022-12-18T18:55:24.171Z,25.25
2022-12-18T18:57:53.642Z,29.10
2022-12-18T19:00:21.611Z,27.13
2022-12-18T19:02:49.923Z,25.33
2022-12-18T19:05:17.910Z,24.95
2022-12-18T19:07:47.230Z,25.15
2022-12-18T19:10:15.121Z,28.27
2022-12-18T19:13:00.386Z,23.13
2022-12-18T19:15:28.270Z,24.88
2022-12-18T19:17:56.120Z,23.23
2022-12-18T19:20:24.003Z,21.90
2022-12-18T19:22:56.294Z,28.20
2022-12-18T19:25:30.944Z,28.80
2022-12-18T19:28:13.499Z,26.63
2022-12-18T19:30:50.897Z,29.08
2022-12-18T19:33:42.266Z,25.98
2022-12-18T19:36:13.010Z,23.30
2022-12-18T19:38:45.008Z,24.97
2022-12-18T19:41:14.815Z,26.47
2022-12-18T19:43:43.130Z,29.17
2022-12-18T19:46:14.245Z,28.23
2022-12-18T19:48:43.091Z,29.40
2022-12-18T19:51:14.498Z,25.75
2022-12-18T19:53:43.930Z,24.70
2022-12-18T19:56:13.825Z,25.40
2022-12-18T19:58:41.911Z,28.07
2022-12-18T20:01:12.014Z,27.13
2022-12-18T20:03:41.482Z,30.80
2022-12-18T20:06:11.287Z,24.97
2022-12-18T20:08:39.420Z,23.70
2022-12-18T20:11:09.464Z,20.50
2022-12-18T20:13:37.564Z,23.50
2022-12-18T20:16:06.117Z,29.33
2022-12-18T20:18:34.168Z,26.20
2022-12-18T20:21:02.231Z,25.73
2022-12-18T20:23:37.468Z,25.80
2022-12-18T20:26:05.489Z,28.65
2022-12-18T20:28:37.825Z,28.90
2022-12-18T20:31:13.597Z,26.23
2022-12-18T20:33:43.200Z,30.80
2022-12-18T20:36:16.370Z,22.87
2022-12-18T20:39:07.610Z,22.88
2022-12-18T20:41:39.139Z,27.13
2022-12-18T20:44:22.348Z,27.83
2022-12-18T20:46:52.916Z,25.03
2022-12-18T20:49:20.860Z,27.13
2022-12-18T20:51:51.720Z,24.00
2022-12-18T20:54:19.571Z,22.27
2022-12-18T20:56:47.430Z,27.53
2022-12-18T20:59:17.219Z,27.37
2022-12-18T21:01:48.033Z,29.87
2022-12-18T21:04:18.210Z,28.63
2022-12-18T21:06:51.265Z,23.10
2022-12-18T21:09:20.401Z,28.83
2022-12-18T21:12:05.873Z,27.33
2022-12-18T21:14:35.152Z,22.23
2022-12-18T21:17:03.079Z,28.98
2022-12-18T21:19:31.210Z,28.85
2022-12-18T21:21:59.451Z,21.40
2022-12-18T21:24:28.188Z,30.07
2022-12-18T21:26:59.943Z,21.23
2022-12-18T21:29:28.131Z,23.43
2022-12-18T21:31:57.421Z,21.02
2022-12-18T21:34:27.334Z,25.03
2022-12-18T21:36:56.013Z,28.73
2022-12-18T21:39:24.110Z,30.03
2022-12-18T21:42:09.992Z,29.60
2022-12-18T21:44:41.955Z,38.57
2022-12-18T21:47:22.753Z,30.60
2022-12-18T21:49:52.878Z,25.83
2022-12-18T21:52:22.160Z,33.60
2022-12-18T21:55:06.237Z,30.95
2022-12-18T21:57:36.708Z,29.48
2022-12-18T22:00:05.720Z,25.13
2022-12-18T22:02:35.131Z,28.23
2022-12-18T22:05:03.114Z,34.63
2022-12-18T22:07:31.111Z,25.60
2022-12-18T22:09:59.323Z,27.33
2022-12-18T22:12:43.450Z,28.37
2022-12-18T22:15:21.120Z,28.37
2022-12-18T22:17:51.338Z,22.47
2022-12-18T22:20:27.952Z,24.47
2022-12-18T22:22:57.257Z,28.63
2022-12-18T22:25:25.143Z,25.60
2022-12-18T22:28:06.904Z,26.77
2022-12-18T22:30:34.903Z,29.60
2022-12-18T22:33:04.856Z,28.77
2022-12-18T22:35:32.786Z,33.63
2022-12-18T22:38:00.849Z,27.70
2022-12-18T22:40:29.601Z,21.60
2022-12-18T22:42:57.498Z,32.67
2022-12-18T22:45:25.818Z,25.47
2022-12-18T22:47:53.993Z,25.67
2022-12-18T22:50:23.261Z,27.00
2022-12-18T22:52:51.086Z,22.87
2022-12-18T22:55:18.922Z,27.70
2022-12-18T22:57:48.665Z,25.80
2022-12-18T23:00:17.661Z,27.00
2022-12-18T23:02:57.531Z,31.23
2022-12-18T23:05:30.424Z,26.73
2022-12-18T23:07:58.690Z,33.53
2022-12-18T23:10:27.246Z,30.90
2022-12-18T23:12:55.157Z,32.03
2022-12-18T23:15:27.215Z,22.97
2022-12-18T23:17:57.358Z,23.27
2022-12-18T23:20:25.245Z,31.17
2022-12-18T23:22:54.473Z,31.03
2022-12-18T23:25:22.369Z,29.47
2022-12-18T23:27:50.339Z,26.10
2022-12-18T23:30:18.447Z,23.50
2022-12-18T23:32:46.327Z,19.77
2022-12-18T23:35:15.841Z,24.50
2022-12-18T23:38:00.464Z,27.93
2022-12-18T23:40:30.810Z,18.50
2022-12-18T23:42:59.631Z,34.90
2022-12-18T23:45:27.525Z,31.67
2022-12-18T23:47:55.340Z,26.30
2022-12-18T23:50:29.569Z,25.23
2022-12-18T23:53:04.678Z,23.10
2022-12-18T23:55:38.452Z,25.67
2022-12-18T23:58:06.348Z,21.57
